Time;durP1;ratioP1;P1;durP2;ratioP2;P2;SDS_P1;SDS_P2;PMS_P1;PMS_P2;Temp;Humidity;BMP_temperature;BMP_pressure;BME280_temperature;BME280_humidity;BME280_pressure;Samples;Min_cycle;Max_cycle;Signal;HPM_P1;HPM_P2
2022/08/07 00:02:19;;;;;;;2.60;1.50;;;27.80;61.50;;;;;;5050989;28;20048;-71
2022/08/07 00:04:45;;;;;;;2.10;1.27;;;27.80;61.40;;;;;;5050949;28;20017;-71
2022/08/07 00:07:11;;;;;;;3.63;1.40;;;27.80;61.70;;;;;;5051337;28;20055;-72
2022/08/07 00:09:38;;;;;;;5.63;1.30;;;27.80;61.80;;;;;;5053370;28;20136;-72
2022/08/07 00:12:04;;;;;;;3.42;1.50;;;27.80;61.80;;;;;;5050523;28;20076;-71
2022/08/07 00:14:39;;;;;;;2.67;1.30;;;27.80;61.50;;;;;;5050557;28;20457;-72
2022/08/07 00:17:05;;;;;;;3.88;1.30;;;27.80;61.30;;;;;;5050743;28;20103;-71
2022/08/07 00:19:31;;;;;;;2.88;1.58;;;27.80;61.70;;;;;;5050987;28;20114;-71
2022/08/07 00:21:58;;;;;;;2.35;1.20;;;27.80;61.80;;;;;;5050311;28;20044;-72
2022/08/07 00:24:24;;;;;;;3.28;1.20;;;27.80;61.30;;;;;;5050825;28;20029;-72
2022/08/07 00:26:51;;;;;;;4.00;1.45;;;27.80;61.40;;;;;;5051130;28;20104;-71
2022/08/07 00:29:18;;;;;;;3.17;1.30;;;27.80;61.70;;;;;;5050495;28;20220;-71
2022/08/07 00:31:44;;;;;;;3.28;1.27;;;27.80;61.50;;;;;;5050768;28;20021;-71
2022/08/07 00:34:10;;;;;;;4.95;1.55;;;27.80;62.20;;;;;;5052325;28;20108;-71
2022/08/07 00:36:37;;;;;;;3.67;1.30;;;27.80;61.40;;;;;;5052067;28;20044;-72
2022/08/07 00:39:03;;;;;;;2.00;1.05;;;27.70;61.00;;;;;;5050597;28;20025;-71
2022/08/07 00:41:33;;;;;;;2.03;1.08;;;27.70;60.60;;;;;;5049309;28;20116;-71
2022/08/07 00:43:59;;;;;;;2.35;1.38;;;27.70;60.40;;;;;;5050522;28;20449;-70
2022/08/07 00:46:25;;;;;;;3.28;1.30;;;27.70;60.40;;;;;;5049406;28;20457;-70
2022/08/07 00:48:51;;;;;;;4.82;1.35;;;27.80;60.30;;;;;;5048971;28;20063;-71
2022/08/07 00:51:17;;;;;;;3.05;1.48;;;27.70;60.30;;;;;;5050630;28;20103;-71
2022/08/07 00:53:43;;;;;;;2.55;1.40;;;27.70;60.20;;;;;;5050414;28;20377;-71
2022/08/07 00:56:11;;;;;;;2.67;1.20;;;27.70;60.10;;;;;;5049318;28;20033;-70
2022/08/07 00:58:42;;;;;;;1.70;1.00;;;27.80;59.50;;;;;;5050242;28;20029;-70
2022/08/07 01:01:08;;;;;;;2.13;1.08;;;27.80;59.70;;;;;;5050462;28;20122;-71
2022/08/07 01:03:34;;;;;;;2.20;1.17;;;27.80;59.60;;;;;;5050134;28;20135;-71
2022/08/07 01:06:01;;;;;;;3.17;1.08;;;27.80;59.90;;;;;;5048559;28;20036;-70
2022/08/07 01:08:28;;;;;;;1.80;1.10;;;27.80;59.90;;;;;;5050080;28;20028;-71
2022/08/07 01:10:54;;;;;;;4.60;1.30;;;27.70;59.90;;;;;;5050000;28;20469;-71
2022/08/07 01:13:20;;;;;;;2.22;1.10;;;27.70;60.10;;;;;;5049956;28;20033;-71
2022/08/07 01:15:47;;;;;;;;;;;27.70;59.90;;;;;;5050866;28;20430;-71
2022/08/07 01:18:13;;;;;;;2.53;1.30;;;27.60;59.80;;;;;;5048579;28;19915;-71
2022/08/07 01:20:47;;;;;;;4.22;1.30;;;27.60;59.90;;;;;;5050079;28;20061;-71
2022/08/07 01:23:15;;;;;;;2.00;1.10;;;27.50;60.20;;;;;;5050057;28;20029;-71
2022/08/07 01:25:42;;;;;;;6.43;1.38;;;27.50;60.40;;;;;;5049750;28;20128;-72
2022/08/07 01:28:08;;;;;;;2.13;1.25;;;27.40;60.80;;;;;;5050116;28;20131;-72
2022/08/07 01:30:36;;;;;;;2.30;1.25;;;27.40;61.00;;;;;;5050088;28;20147;-72
2022/08/07 01:33:02;;;;;;;2.55;1.30;;;27.40;60.90;;;;;;5049935;28;20055;-71
2022/08/07 01:35:29;;;;;;;2.30;1.10;;;27.40;60.80;;;;;;5049815;28;20516;-72
2022/08/07 01:37:55;;;;;;;2.83;1.20;;;27.40;60.80;;;;;;5048363;28;20384;-71
2022/08/07 01:40:21;;;;;;;;;;;27.40;60.60;;;;;;5050485;28;20017;-71
2022/08/07 01:42:48;;;;;;;3.35;1.20;;;27.40;60.60;;;;;;5049965;28;20249;-71
2022/08/07 01:45:14;;;;;;;2.53;1.30;;;27.40;60.70;;;;;;5049977;28;20033;-71
2022/08/07 01:47:40;;;;;;;2.45;1.30;;;27.40;60.50;;;;;;5048234;28;20057;-72
2022/08/07 01:50:07;;;;;;;2.70;1.38;;;27.40;60.40;;;;;;5049806;28;20024;-72
2022/08/07 01:52:34;;;;;;;;;;;27.40;60.20;;;;;;5054117;28;20079;-71
2022/08/07 01:55:02;;;;;;;2.20;1.20;;;27.40;60.20;;;;;;5054002;28;19911;-71
2022/08/07 01:57:33;;;;;;;5.57;1.40;;;27.40;60.40;;;;;;5053889;28;20043;-72
2022/08/07 02:00:08;;;;;;;3.70;1.50;;;27.40;60.30;;;;;;5052359;28;20139;-71
2022/08/07 02:02:44;;;;;;;3.15;1.50;;;27.40;60.30;;;;;;5054062;28;20056;-71
2022/08/07 02:05:17;;;;;;;;;;;27.50;60.30;;;;;;5054163;28;20059;-71
2022/08/07 02:07:51;;;;;;;2.55;1.40;;;27.40;60.40;;;;;;5053793;28;19954;-72
2022/08/07 02:10:21;;;;;;;4.05;1.52;;;27.40;60.20;;;;;;5053680;28;20115;-71
2022/08/07 02:12:48;;;;;;;2.90;1.40;;;27.40;60.50;;;;;;5053190;28;20029;-70
2022/08/07 02:15:17;;;;;;;3.05;1.38;;;27.30;60.60;;;;;;5053317;28;20039;-70
2022/08/07 02:17:44;;;;;;;2.65;1.45;;;27.30;60.90;;;;;;5053429;28;20040;-71
2022/08/07 02:20:11;;;;;;;3.45;1.60;;;27.30;60.40;;;;;;5053099;28;20063;-71
2022/08/07 02:22:39;;;;;;;3.08;1.40;;;27.30;60.00;;;;;;5053403;28;20461;-71
2022/08/07 02:25:08;;;;;;;4.03;1.40;;;27.30;60.00;;;;;;5053339;28;20136;-70
2022/08/07 02:27:36;;;;;;;4.22;1.42;;;27.40;60.00;;;;;;5053298;28;20485;-70
2022/08/07 02:30:04;;;;;;;3.53;1.40;;;27.40;59.90;;;;;;5053077;28;20021;-71
2022/08/07 02:32:32;;;;;;;4.68;1.40;;;27.40;59.70;;;;;;5051447;28;20077;-71
2022/08/07 02:34:59;;;;;;;2.10;1.20;;;27.40;59.60;;;;;;5053919;28;20424;-71
2022/08/07 02:37:26;;;;;;;5.45;1.42;;;27.40;59.30;;;;;;5053082;28;20029;-71
2022/08/07 02:39:55;;;;;;;3.53;1.45;;;27.50;59.00;;;;;;5053042;28;20107;-71
2022/08/07 02:42:21;;;;;;;4.28;1.60;;;27.60;58.90;;;;;;5052791;28;20452;-71
2022/08/07 02:44:49;;;;;;;2.33;1.40;;;27.60;58.30;;;;;;5051375;28;20028;-70
2022/08/07 02:47:19;;;;;;;3.45;1.20;;;27.70;58.30;;;;;;5052841;28;20481;-72
2022/08/07 02:49:45;;;;;;;2.88;1.27;;;27.70;57.80;;;;;;5052528;28;20091;-71
2022/08/07 02:52:16;;;;;;;4.20;1.30;;;27.70;57.90;;;;;;5052557;28;20033;-72
2022/08/07 02:54:44;;;;;;;4.18;1.40;;;27.80;57.60;;;;;;5052617;28;20040;-72
2022/08/07 02:57:13;;;;;;;2.58;1.20;;;27.90;58.20;;;;;;5052626;28;20013;-71
2022/08/07 02:59:44;;;;;;;3.17;1.40;;;27.90;58.20;;;;;;5052417;28;20086;-71
2022/08/07 03:02:13;;;;;;;2.72;1.40;;;27.80;58.50;;;;;;5051345;28;20028;-71
2022/08/07 03:04:41;;;;;;;4.93;1.30;;;27.70;58.90;;;;;;5050930;28;20059;-71
2022/08/07 03:07:08;;;;;;;4.50;1.70;;;27.60;59.20;;;;;;5050779;28;20128;-71
2022/08/07 03:09:34;;;;;;;2.15;1.20;;;27.50;59.70;;;;;;5052177;28;20484;-71
2022/08/07 03:12:04;;;;;;;2.47;1.30;;;27.40;60.00;;;;;;5051974;28;20021;-70
2022/08/07 03:14:33;;;;;;;2.58;1.30;;;27.40;60.40;;;;;;5052036;28;20085;-71
2022/08/07 03:16:59;;;;;;;3.03;1.30;;;27.30;60.80;;;;;;5051954;28;20115;-70
2022/08/07 03:19:25;;;;;;;4.43;1.58;;;27.20;61.00;;;;;;5052343;28;20354;-71
2022/08/07 03:21:51;;;;;;;3.40;1.70;;;27.20;61.30;;;;;;5052052;28;20114;-71
2022/08/07 03:24:18;;;;;;;2.42;1.63;;;27.20;61.40;;;;;;5051943;28;20033;-71
2022/08/07 03:26:45;;;;;;;3.83;1.45;;;27.10;61.70;;;;;;5052132;28;20457;-72
2022/08/07 03:29:13;;;;;;;2.90;1.60;;;27.00;61.90;;;;;;5052236;28;20092;-71
2022/08/07 03:31:41;;;;;;;3.08;1.50;;;27.00;61.80;;;;;;5052095;28;20040;-71
2022/08/07 03:34:09;;;;;;;2.85;1.50;;;27.00;62.00;;;;;;5052251;28;20028;-72
2022/08/07 03:36:37;;;;;;;2.58;1.42;;;27.00;62.00;;;;;;5051863;28;20031;-71
2022/08/07 03:39:10;;;;;;;3.80;1.40;;;27.00;62.10;;;;;;5051879;28;20501;-71
2022/08/07 03:41:37;;;;;;;2.47;1.40;;;26.90;61.90;;;;;;5051974;28;20460;-71
2022/08/07 03:44:04;;;;;;;2.33;1.50;;;26.90;62.00;;;;;;5051873;28;20100;-71
2022/08/07 03:46:31;;;;;;;2.80;1.27;;;26.90;62.10;;;;;;5051812;28;20036;-71
2022/08/07 03:48:57;;;;;;;4.00;1.70;;;26.90;62.30;;;;;;5051582;28;20044;-71
2022/08/07 03:51:23;;;;;;;;;;;26.90;62.50;;;;;;5051966;28;20029;-71
2022/08/07 03:53:49;;;;;;;2.92;1.38;;;26.90;62.50;;;;;;5051300;28;19988;-71
2022/08/07 03:56:20;;;;;;;2.58;1.35;;;26.80;62.60;;;;;;5051399;28;20025;-72
2022/08/07 03:58:47;;;;;;;2.78;1.42;;;26.90;62.80;;;;;;5050009;28;20025;-72
2022/08/07 04:01:14;;;;;;;2.50;1.40;;;26.90;62.70;;;;;;5051185;28;20071;-71
2022/08/07 04:03:40;;;;;;;7.50;1.50;;;26.90;63.10;;;;;;5051217;28;20445;-70
2022/08/07 04:06:12;;;;;;;3.67;1.35;;;27.00;63.50;;;;;;5051293;28;20025;-70
2022/08/07 04:08:41;;;;;;;2.63;1.50;;;27.00;63.60;;;;;;5051357;28;20025;-71
2022/08/07 04:11:09;;;;;;;4.00;1.58;;;27.00;64.00;;;;;;5051194;28;20017;-70
2022/08/07 04:13:36;;;;;;;10.63;1.70;;;27.00;64.20;;;;;;5050983;28;20147;-70
2022/08/07 04:16:02;;;;;;;2.38;1.40;;;26.90;64.40;;;;;;5051671;28;20025;-70
2022/08/07 04:18:28;;;;;;;;;;;26.90;64.50;;;;;;5051484;28;20052;-71
2022/08/07 04:20:54;;;;;;;;;;;26.90;64.60;;;;;;5051324;28;19908;-71
2022/08/07 04:23:21;;;;;;;4.28;2.10;;;26.90;64.90;;;;;;5051247;28;19913;-70
2022/08/07 04:25:48;;;;;;;3.78;1.65;;;26.90;65.40;;;;;;5050901;28;20070;-72
2022/08/07 04:28:14;;;;;;;3.47;1.63;;;26.90;65.50;;;;;;5049274;28;20048;-70
2022/08/07 04:30:40;;;;;;;4.68;1.70;;;26.90;65.80;;;;;;5050939;28;20032;-71
2022/08/07 04:33:09;;;;;;;4.00;1.65;;;27.00;66.00;;;;;;5051029;28;20361;-70
2022/08/07 04:35:37;;;;;;;5.32;1.60;;;27.00;66.20;;;;;;5050637;28;20017;-70
2022/08/07 04:38:09;;;;;;;4.60;1.85;;;27.00;66.50;;;;;;5049409;28;20059;-71
2022/08/07 04:40:39;;;;;;;3.35;1.52;;;27.00;66.80;;;;;;5050599;28;20074;-70
2022/08/07 04:43:05;;;;;;;3.72;1.88;;;27.00;66.90;;;;;;5050998;28;20091;-70
2022/08/07 04:45:51;;;;;;;3.17;1.50;;;27.00;67.20;;;;;;5050593;28;20068;-70
2022/08/07 04:48:32;;;;;;;3.38;1.70;;;27.00;67.30;;;;;;5050632;28;20025;-71
2022/08/07 04:51:26;;;;;;;6.18;1.60;;;27.10;67.70;;;;;;5050699;28;20112;-71
2022/08/07 04:54:11;;;;;;;4.03;1.63;;;27.10;68.80;;;;;;5049321;28;20486;-72
2022/08/07 04:57:03;;;;;;;4.57;1.60;;;27.20;68.40;;;;;;5050851;28;20032;-71
2022/08/07 05:00:02;;;;;;;4.13;1.90;;;27.20;68.70;;;;;;5050746;28;20256;-71
2022/08/07 05:02:52;;;;;;;4.22;1.77;;;27.20;69.10;;;;;;5050606;28;20052;-71
2022/08/07 05:05:24;;;;;;;3.10;1.67;;;27.30;69.50;;;;;;5049044;28;20066;-71
2022/08/07 05:08:05;;;;;;;2.85;1.80;;;27.30;69.80;;;;;;5048612;28;20524;-71
2022/08/07 05:10:46;;;;;;;8.23;1.85;;;27.40;70.10;;;;;;5050613;28;20033;-71
2022/08/07 05:13:16;;;;;;;2.72;1.90;;;27.50;70.30;;;;;;5050612;28;20074;-71
2022/08/07 05:15:46;;;;;;;3.17;1.83;;;27.50;70.30;;;;;;5050563;28;20025;-70
2022/08/07 05:18:31;;;;;;;3.60;2.05;;;27.60;70.30;;;;;;5050402;28;20065;-71
2022/08/07 05:21:02;;;;;;;2.88;1.80;;;27.80;70.30;;;;;;5050332;28;20041;-71
2022/08/07 05:23:57;;;;;;;3.38;1.85;;;28.90;69.00;;;;;;5048624;28;20033;-71
2022/08/07 05:26:26;;;;;;;3.50;1.77;;;30.50;66.10;;;;;;5048341;28;20056;-71
2022/08/07 05:28:55;;;;;;;6.47;1.95;;;32.30;63.40;;;;;;5049849;28;20024;-71
2022/08/07 05:31:25;;;;;;;8.35;1.42;;;33.40;61.60;;;;;;5049921;28;20083;-71
2022/08/07 05:33:53;;;;;;;6.38;1.60;;;34.40;59.90;;;;;;5049956;28;20021;-72
2022/08/07 05:36:21;;;;;;;4.85;1.60;;;34.40;59.70;;;;;;5049990;28;20326;-72
2022/08/07 05:38:49;;;;;;;3.03;1.48;;;34.70;59.50;;;;;;5050051;28;20077;-71
2022/08/07 05:41:16;;;;;;;2.85;1.40;;;34.20;60.20;;;;;;5049749;28;20116;-71
2022/08/07 05:43:48;;;;;;;2.70;1.38;;;34.20;61.00;;;;;;5049590;28;20028;-71
2022/08/07 05:46:16;;;;;;;2.38;1.23;;;33.80;61.50;;;;;;5049918;28;20462;-70
2022/08/07 05:48:43;;;;;;;4.55;1.20;;;34.20;61.20;;;;;;5049737;28;20104;-71
2022/08/07 05:51:10;;;;;;;3.92;1.40;;;34.50;61.00;;;;;;5049900;28;20330;-71
2022/08/07 05:53:36;;;;;;;3.63;1.20;;;35.30;59.80;;;;;;5048248;28;20021;-72
2022/08/07 05:56:03;;;;;;;4.05;1.33;;;35.30;59.80;;;;;;5049297;28;20037;-71
2022/08/07 05:58:31;;;;;;;2.55;1.30;;;35.10;59.80;;;;;;5049565;28;20437;-72
2022/08/07 06:00:59;;;;;;;4.03;1.20;;;34.90;60.00;;;;;;5049146;28;20059;-72
2022/08/07 06:03:27;;;;;;;3.38;1.10;;;34.90;60.70;;;;;;5049540;28;20398;-72
2022/08/07 06:05:54;;;;;;;2.42;1.10;;;35.90;60.00;;;;;;5049747;28;20028;-72
2022/08/07 06:08:21;;;;;;;3.65;1.38;;;37.00;58.70;;;;;;5047977;28;20033;-72
2022/08/07 06:10:47;;;;;;;3.72;1.00;;;36.90;58.50;;;;;;5049938;28;20032;-72
2022/08/07 06:13:13;;;;;;;4.35;1.10;;;37.60;58.10;;;;;;5049767;28;20025;-71
2022/08/07 06:15:41;;;;;;;2.90;1.30;;;38.00;58.30;;;;;;5049676;28;20029;-70
2022/08/07 06:18:07;;;;;;;2.42;1.17;;;37.70;57.50;;;;;;5050163;28;20464;-72
2022/08/07 06:20:37;;;;;;;3.25;0.98;;;38.30;57.40;;;;;;5050536;28;20029;-72
2022/08/07 06:23:08;;;;;;;2.83;1.00;;;37.70;57.50;;;;;;5050157;28;20429;-72
2022/08/07 06:25:39;;;;;;;3.92;1.00;;;37.90;58.20;;;;;;5049838;28;20045;-72
2022/08/07 06:28:07;;;;;;;2.38;1.02;;;37.70;58.20;;;;;;5050069;28;20510;-72
2022/08/07 06:30:37;;;;;;;3.55;1.13;;;37.90;58.20;;;;;;5050054;28;20099;-72
2022/08/07 06:33:05;;;;;;;4.28;1.10;;;37.50;58.00;;;;;;5050143;28;20033;-72
2022/08/07 06:35:31;;;;;;;3.95;1.20;;;38.00;58.30;;;;;;5050067;28;20053;-72
2022/08/07 06:37:57;;;;;;;4.10;1.10;;;39.00;56.80;;;;;;5052740;28;20029;-72
2022/08/07 06:40:24;;;;;;;2.60;1.02;;;38.80;56.90;;;;;;5053655;28;20108;-72
2022/08/07 06:42:52;;;;;;;4.07;1.20;;;38.60;57.00;;;;;;5053607;28;20028;-71
2022/08/07 06:45:21;;;;;;;3.55;1.20;;;39.20;56.40;;;;;;5053901;28;20082;-72
2022/08/07 06:47:47;;;;;;;2.78;1.10;;;39.20;56.30;;;;;;5053765;28;20079;-72
2022/08/07 06:50:14;;;;;;;2.65;1.13;;;38.20;57.20;;;;;;5053570;28;20029;-71
2022/08/07 06:52:44;;;;;;;4.78;1.20;;;38.50;57.40;;;;;;5051755;28;20068;-72
2022/08/07 06:55:25;;;;;;;4.40;1.20;;;39.30;57.00;;;;;;5051992;28;20077;-72
2022/08/07 06:57:56;;;;;;;5.38;1.20;;;40.00;55.60;;;;;;5053553;28;20043;-72
2022/08/07 07:00:22;;;;;;;3.92;1.20;;;40.00;54.80;;;;;;5053690;28;20087;-72
2022/08/07 07:02:48;;;;;;;4.57;1.15;;;39.90;55.50;;;;;;5053572;28;20084;-72
2022/08/07 07:05:15;;;;;;;2.97;1.10;;;40.10;54.50;;;;;;5053463;28;20063;-72
2022/08/07 07:07:45;;;;;;;3.03;0.82;;;39.90;55.30;;;;;;5053616;28;20037;-72
2022/08/07 07:10:13;;;;;;;2.50;0.90;;;41.10;54.30;;;;;;5053404;28;20425;-73
2022/08/07 07:12:51;;;;;;;5.40;1.00;;;40.80;53.20;;;;;;5053483;28;20033;-72
2022/08/07 07:15:35;;;;;;;2.75;0.80;;;40.60;54.10;;;;;;5053478;28;20078;-72
2022/08/07 07:18:01;;;;;;;1.58;0.77;;;41.20;53.50;;;;;;5053625;28;20458;-72
2022/08/07 07:20:36;;;;;;;5.55;1.17;;;40.80;53.80;;;;;;5053407;28;20102;-71
2022/08/07 07:23:05;;;;;;;2.15;1.08;;;41.80;53.30;;;;;;5053364;28;20036;-72
2022/08/07 07:25:33;;;;;;;4.35;1.20;;;42.40;52.60;;;;;;5052704;28;20041;-71
2022/08/07 07:28:23;;;;;;;2.80;1.10;;;40.90;52.40;;;;;;5052800;28;20040;-72
2022/08/07 07:31:01;;;;;;;4.70;1.30;;;40.60;54.10;;;;;;5053252;28;20033;-72
2022/08/07 07:33:29;;;;;;;2.42;1.10;;;39.70;54.70;;;;;;5053011;28;20104;-73
2022/08/07 07:35:57;;;;;;;4.32;1.20;;;38.80;55.00;;;;;;5053049;28;20104;-72
2022/08/07 07:38:26;;;;;;;3.88;1.40;;;37.40;56.30;;;;;;5052843;28;20445;-72
2022/08/07 07:40:59;;;;;;;3.55;1.10;;;36.70;57.70;;;;;;5052849;28;20059;-71
2022/08/07 07:43:27;;;;;;;5.25;1.80;;;36.70;57.90;;;;;;5052449;28;20094;-72
2022/08/07 07:45:53;;;;;;;4.88;1.60;;;36.60;57.40;;;;;;5052399;28;20029;-72
2022/08/07 07:48:21;;;;;;;3.03;1.73;;;36.50;58.30;;;;;;5051582;28;20189;-71
2022/08/07 07:50:51;;;;;;;6.40;1.80;;;36.70;58.30;;;;;;5052148;28;20025;-71
2022/08/07 07:53:20;;;;;;;6.93;2.70;;;36.60;58.40;;;;;;5052163;28;20053;-72
2022/08/07 07:55:46;;;;;;;3.95;3.35;;;36.50;58.30;;;;;;5051658;28;20029;-72
2022/08/07 07:58:13;;;;;;;5.25;3.60;;;36.70;58.80;;;;;;5051298;28;20025;-72
2022/08/07 08:00:42;;;;;;;6.50;3.53;;;37.10;58.40;;;;;;5051097;28;20033;-73
2022/08/07 08:03:12;;;;;;;6.25;3.67;;;37.50;58.00;;;;;;5049873;28;20509;-72
2022/08/07 08:05:40;;;;;;;6.90;3.05;;;37.30;58.00;;;;;;5051133;28;20040;-72
2022/08/07 08:08:09;;;;;;;6.55;2.78;;;37.00;58.70;;;;;;5051128;28;20029;-72
2022/08/07 08:10:37;;;;;;;4.32;2.22;;;37.20;59.00;;;;;;5051443;28;20032;-72
2022/08/07 08:13:04;;;;;;;4.03;2.33;;;37.40;58.40;;;;;;5050875;28;20032;-72
2022/08/07 08:15:37;;;;;;;6.07;2.20;;;37.90;57.90;;;;;;5050769;28;20087;-72
2022/08/07 08:18:09;;;;;;;9.77;2.33;;;38.30;57.00;;;;;;5051932;28;20049;-72
2022/08/07 08:20:38;;;;;;;4.35;1.85;;;38.40;56.50;;;;;;5050136;28;20478;-72
2022/08/07 08:28:42;;;;;;;4.55;1.75;;;38.20;56.30;;;;;;5052436;28;20044;-72
2022/08/07 08:31:20;;;;;;;3.03;1.40;;;38.30;55.90;;;;;;5050346;28;20107;-72
2022/08/07 08:33:47;;;;;;;4.20;1.55;;;38.30;55.30;;;;;;5052087;28;20457;-73
2022/08/07 08:36:15;;;;;;;3.35;1.40;;;38.50;55.60;;;;;;5052138;28;20504;-72
2022/08/07 08:38:43;;;;;;;3.17;1.30;;;38.30;54.80;;;;;;5051996;28;20028;-72
2022/08/07 08:41:27;;;;;;;4.13;1.40;;;38.20;55.00;;;;;;5050231;28;20032;-72
2022/08/07 08:44:06;;;;;;;5.37;2.23;;;37.60;55.90;;;;;;5051556;28;20025;-72
2022/08/07 08:46:53;;;;;;;7.35;1.85;;;37.60;54.60;;;;;;5051656;28;20028;-72
2022/08/07 08:49:41;;;;;;;4.40;2.00;;;37.50;53.00;;;;;;5051196;28;20434;-72
2022/08/07 08:52:22;;;;;;;4.82;2.13;;;37.70;53.00;;;;;;5050695;28;20166;-72
2022/08/07 08:55:01;;;;;;;3.03;1.90;;;37.80;52.30;;;;;;5050781;28;20079;-72
2022/08/07 08:57:58;;;;;;;3.50;2.20;;;37.90;51.20;;;;;;5051104;28;20053;-72
2022/08/07 09:00:29;;;;;;;10.63;2.50;;;37.70;50.90;;;;;;5050487;28;20429;-72
2022/08/07 09:03:09;;;;;;;6.60;2.30;;;37.60;50.20;;;;;;5049414;28;20033;-72
2022/08/07 09:06:00;;;;;;;6.45;2.40;;;37.40;50.00;;;;;;5050609;28;20028;-72
2022/08/07 09:08:40;;;;;;;5.95;2.28;;;37.40;49.20;;;;;;5050670;28;20036;-72
2022/08/07 09:11:12;;;;;;;5.38;2.20;;;37.20;49.60;;;;;;5050750;28;20119;-72
2022/08/07 09:13:44;;;;;;;6.80;2.60;;;37.30;49.90;;;;;;5050639;28;20032;-72
2022/08/07 09:16:22;;;;;;;5.57;2.90;;;37.30;48.60;;;;;;5050152;28;20033;-72
2022/08/07 09:18:54;;;;;;;4.15;2.67;;;37.40;48.90;;;;;;5050902;28;20039;-72
2022/08/07 09:21:48;;;;;;;7.22;2.85;;;37.60;49.00;;;;;;5050481;28;20055;-72
2022/08/07 09:24:33;;;;;;;5.55;2.67;;;37.70;48.00;;;;;;5050475;28;20056;-72
2022/08/07 09:26:59;;;;;;;;;;;37.90;48.40;;;;;;5049282;28;20129;-72
2022/08/07 09:29:46;;;;;;;5.63;2.70;;;38.00;48.10;;;;;;5048799;28;19915;-72
2022/08/07 09:32:34;;;;;;;5.43;2.90;;;37.80;47.90;;;;;;5050639;28;20478;-71
2022/08/07 09:35:28;;;;;;;5.88;2.60;;;37.70;48.40;;;;;;5050461;28;20025;-72
2022/08/07 09:38:06;;;;;;;5.97;2.88;;;37.40;48.00;;;;;;5050607;28;20074;-72
2022/08/07 09:40:41;;;;;;;7.13;2.65;;;37.30;47.80;;;;;;5048749;28;20155;-71
2022/08/07 09:43:26;;;;;;;6.10;2.80;;;37.20;47.50;;;;;;5048663;28;20577;-72
2022/08/07 09:46:31;;;;;;;3.63;2.60;;;36.80;48.20;;;;;;5050457;28;20059;-72
2022/08/07 09:49:15;;;;;;;7.97;3.35;;;36.60;48.10;;;;;;5050116;28;20095;-72
2022/08/07 09:52:05;;;;;;;3.85;2.60;;;36.70;47.80;;;;;;5050375;28;20051;-72
2022/08/07 09:54:40;;;;;;;5.55;3.08;;;36.90;48.00;;;;;;5050249;28;20210;-72
2022/08/07 09:57:34;;;;;;;4.38;2.80;;;37.00;47.80;;;;;;5050145;28;20354;-73
2022/08/07 10:00:15;;;;;;;4.80;2.72;;;37.10;48.00;;;;;;5050236;28;20029;-72
2022/08/07 10:03:06;;;;;;;6.15;3.15;;;37.20;47.20;;;;;;5050169;28;20033;-72
2022/08/07 10:05:50;;;;;;;5.93;3.13;;;37.10;46.30;;;;;;5050262;28;20113;-73
2022/08/07 10:08:45;;;;;;;11.95;3.35;;;37.10;46.30;;;;;;5049978;28;20021;-72
2022/08/07 10:11:26;;;;;;;6.93;3.08;;;36.60;46.00;;;;;;5049041;28;20048;-72
2022/08/07 10:14:17;;;;;;;5.47;2.90;;;36.40;47.20;;;;;;5053960;28;20036;-73
2022/08/07 10:16:58;;;;;;;7.53;2.80;;;36.30;47.20;;;;;;5054273;28;20075;-72
2022/08/07 10:19:53;;;;;;;5.80;3.33;;;36.00;48.00;;;;;;5053995;28;20075;-72
2022/08/07 10:22:41;;;;;;;7.57;3.00;;;35.90;48.50;;;;;;5052146;28;20087;-73
2022/08/07 10:25:20;;;;;;;6.05;2.80;;;36.10;48.20;;;;;;5053499;28;20444;-73
2022/08/07 10:28:22;;;;;;;5.63;3.03;;;35.90;47.90;;;;;;5053623;28;20036;-71
2022/08/07 10:31:25;;;;;;;5.10;3.40;;;35.80;47.70;;;;;;5053786;28;20101;-73
2022/08/07 10:34:07;;;;;;;5.90;3.50;;;36.10;47.60;;;;;;5053585;28;20140;-71
2022/08/07 10:37:05;;;;;;;5.35;3.58;;;35.80;47.10;;;;;;5053568;28;20095;-72
2022/08/07 10:40:03;;;;;;;5.40;3.80;;;35.80;47.00;;;;;;5053591;28;20139;-72
2022/08/07 10:42:39;;;;;;;6.13;3.80;;;36.00;46.60;;;;;;5053739;28;20044;-72
2022/08/07 10:45:11;;;;;;;7.50;4.43;;;35.90;46.00;;;;;;5053564;28;20028;-72
2022/08/07 10:48:14;;;;;;;7.85;4.82;;;35.90;46.10;;;;;;5053708;28;20033;-73
2022/08/07 10:51:09;;;;;;;7.10;4.55;;;36.10;45.80;;;;;;5053588;28;20208;-72
2022/08/07 10:53:56;;;;;;;8.57;4.85;;;36.30;45.60;;;;;;5050888;28;20041;-71
2022/08/07 10:56:46;;;;;;;6.75;5.20;;;36.50;45.20;;;;;;5051544;28;20101;-72
2022/08/07 10:59:22;;;;;;;7.60;5.30;;;36.70;45.40;;;;;;5053292;28;20120;-72
2022/08/07 11:02:19;;;;;;;13.00;5.35;;;36.80;44.60;;;;;;5053069;28;20063;-72
2022/08/07 11:05:33;;;;;;;8.68;5.07;;;36.60;44.90;;;;;;5053187;28;20097;-72
2022/08/07 11:08:18;;;;;;;7.13;4.20;;;36.70;44.90;;;;;;5031050;28;20037;-72
2022/08/07 11:10:48;;;;;;;6.78;3.38;;;36.70;45.60;;;;;;5031022;28;20041;-72
2022/08/07 11:13:18;;;;;;;6.28;3.42;;;36.70;46.60;;;;;;5031061;28;20033;-72
2022/08/07 11:15:48;;;;;;;5.65;3.20;;;36.60;46.50;;;;;;5030603;28;20029;-72
2022/08/07 11:18:24;;;;;;;4.88;3.00;;;36.70;47.70;;;;;;5013871;28;20031;-72
2022/08/07 11:21:19;;;;;;;5.72;2.80;;;36.80;49.30;;;;;;5030867;28;20338;-72
2022/08/07 11:24:04;;;;;;;4.90;2.67;;;36.80;49.40;;;;;;5029508;28;20052;-72
2022/08/07 11:26:36;;;;;;;11.85;2.40;;;36.70;50.10;;;;;;5030125;28;20121;-72
2022/08/07 11:29:59;;;;;;;3.50;2.00;;;36.80;49.80;;;;;;5030450;28;20111;-73
2022/08/07 11:32:42;;;;;;;4.40;1.70;;;37.00;49.20;;;;;;4952417;29;20043;-72
2022/08/07 11:35:17;;;;;;;4.40;1.50;;;36.80;49.10;;;;;;4952643;29;20067;-72
2022/08/07 11:37:51;;;;;;;3.70;1.23;;;36.80;48.50;;;;;;4955176;28;20122;-72
2022/08/07 11:40:20;;;;;;;1.83;1.20;;;36.90;48.00;;;;;;4991342;28;20039;-72
2022/08/07 11:42:56;;;;;;;3.03;1.10;;;36.90;47.30;;;;;;4990996;28;20112;-72
2022/08/07 11:45:40;;;;;;;4.25;1.30;;;37.00;49.50;;;;;;4991226;28;20022;-73
2022/08/07 11:48:21;;;;;;;5.22;1.40;;;37.00;49.60;;;;;;4991345;28;20088;-73
2022/08/07 11:51:05;;;;;;;3.90;1.35;;;37.00;51.60;;;;;;4990928;28;20121;-73
2022/08/07 11:53:51;;;;;;;2.70;1.67;;;36.90;51.00;;;;;;4991066;28;20037;-73
2022/08/07 11:56:40;;;;;;;6.20;1.70;;;36.80;51.60;;;;;;4990693;28;20105;-73
2022/08/07 11:59:23;;;;;;;3.15;1.83;;;36.80;51.00;;;;;;4972425;28;20038;-73
2022/08/07 12:02:12;;;;;;;3.42;1.30;;;36.60;51.10;;;;;;4973984;28;20042;-72
2022/08/07 12:05:06;;;;;;;4.00;1.38;;;36.70;53.10;;;;;;5050333;28;20104;-73
2022/08/07 12:07:59;;;;;;;3.35;1.40;;;36.80;55.20;;;;;;5052180;28;20025;-72
2022/08/07 12:10:35;;;;;;;4.13;1.35;;;37.00;58.30;;;;;;5049259;28;20044;-73
2022/08/07 12:13:27;;;;;;;11.45;1.80;;;37.00;59.90;;;;;;5052275;28;20456;-73
2022/08/07 12:16:19;;;;;;;9.48;1.83;;;37.10;67.70;;;;;;5050425;28;20021;-71
2022/08/07 12:19:12;;;;;;;6.30;1.75;;;37.00;69.20;;;;;;5050056;28;20029;-71
2022/08/07 12:22:07;;;;;;;4.22;1.50;;;36.80;68.50;;;;;;5050060;28;20489;-73
2022/08/07 12:27:58;;;;;;;5.10;1.40;;;35.80;69.60;;;;;;5051701;28;20079;-72
2022/08/07 12:30:30;;;;;;;2.95;1.35;;;36.00;69.00;;;;;;5051667;28;20025;-73
2022/08/07 12:33:11;;;;;;;2.88;1.52;;;36.20;69.30;;;;;;5051474;28;20025;-72
2022/08/07 12:35:40;;;;;;;3.75;1.38;;;36.30;71.70;;;;;;5050703;28;20116;-72
2022/08/07 12:38:07;;;;;;;3.35;1.42;;;36.20;72.60;;;;;;5051326;28;20527;-73
2022/08/07 12:40:35;;;;;;;3.80;1.60;;;36.30;73.80;;;;;;5051100;28;20029;-72
2022/08/07 12:43:05;;;;;;;5.32;1.65;;;36.20;75.10;;;;;;5051147;28;20147;-72
2022/08/07 12:45:44;;;;;;;17.88;2.28;;;36.10;77.10;;;;;;5051465;28;20040;-72
2022/08/07 12:48:26;;;;;;;6.05;1.88;;;36.30;77.20;;;;;;5051236;28;20025;-73
2022/08/07 12:51:17;;;;;;;5.38;1.90;;;36.00;79.70;;;;;;5051336;28;20445;-72
2022/08/07 12:53:59;;;;;;;6.45;1.80;;;35.90;79.70;;;;;;5050676;28;20045;-72
2022/08/07 12:56:35;;;;;;;4.20;2.00;;;36.20;80.60;;;;;;5051248;28;20124;-72
2022/08/07 12:59:04;;;;;;;8.95;2.13;;;35.90;81.20;;;;;;5051307;28;20330;-72
2022/08/07 13:02:01;;;;;;;5.82;1.70;;;36.10;81.60;;;;;;5050851;28;20043;-72
2022/08/07 13:05:12;;;;;;;6.20;1.90;;;36.20;81.30;;;;;;5051239;28;20029;-71
2022/08/07 13:08:06;;;;;;;7.80;1.95;;;36.30;80.60;;;;;;5028612;28;20045;-72
2022/08/07 13:10:56;;;;;;;5.22;1.63;;;36.20;80.20;;;;;;5028942;28;20061;-72
2022/08/07 13:13:33;;;;;;;4.97;1.70;;;36.10;79.60;;;;;;5028938;28;20076;-71
2022/08/07 13:16:11;;;;;;;4.53;1.40;;;36.10;77.80;;;;;;5028814;28;20040;-72
2022/08/07 13:19:04;;;;;;;4.97;1.55;;;36.00;73.40;;;;;;5028429;28;20537;-73
2022/08/07 13:21:42;;;;;;;6.32;1.27;;;36.10;74.00;;;;;;5028697;28;20088;-71
2022/08/07 13:24:16;;;;;;;4.97;1.50;;;36.50;69.90;;;;;;5012082;28;20048;-71
2022/08/07 13:27:09;;;;;;;16.25;1.38;;;36.80;68.60;;;;;;5027985;28;20057;-71
2022/08/07 13:29:43;;;;;;;2.20;1.17;;;37.10;62.90;;;;;;5028000;28;20029;-72
2022/08/07 13:32:28;;;;;;;4.60;1.20;;;37.40;62.50;;;;;;5028685;28;20042;-72
2022/08/07 13:35:23;;;;;;;6.20;1.40;;;37.60;63.10;;;;;;5028342;28;20090;-72